createdAt,value
2019-05-14T00:00:52.295Z,0.00
2019-05-14T00:01:51.674Z,0.00
2019-05-14T00:02:52.154Z,0.00
2019-05-14T00:03:51.786Z,0.00
2019-05-14T00:04:51.628Z,0.00
2019-05-14T00:05:51.924Z,0.00
2019-05-14T00:06:52.033Z,0.00
2019-05-14T00:07:52.140Z,0.00
2019-05-14T00:08:52.194Z,0.00
2019-05-14T00:09:52.021Z,0.00
2019-05-14T00:10:52.118Z,0.00
2019-05-14T00:11:51.580Z,0.00
2019-05-14T00:12:51.532Z,0.00
2019-05-14T00:13:52.043Z,0.00
2019-05-14T00:14:51.747Z,0.00
2019-05-14T00:15:52.253Z,0.00
2019-05-14T00:16:51.500Z,0.00
2019-05-14T00:17:52.200Z,0.00
2019-05-14T00:18:51.514Z,0.00
2019-05-14T00:20:05.806Z,0.00
2019-05-14T00:20:52.472Z,0.00
2019-05-14T00:21:51.512Z,0.00
2019-05-14T00:22:52.166Z,0.00
2019-05-14T00:23:51.545Z,0.00
2019-05-14T00:24:52.046Z,0.00
2019-05-14T00:25:52.318Z,0.00
2019-05-14T00:26:51.824Z,0.00
2019-05-14T00:27:51.887Z,0.00
2019-05-14T00:28:51.387Z,0.00
2019-05-14T00:29:51.953Z,0.00
2019-05-14T00:30:52.473Z,0.00
2019-05-14T00:31:51.727Z,0.00
2019-05-14T00:32:52.061Z,0.00
2019-05-14T00:33:51.442Z,0.00
2019-05-14T00:34:51.759Z,0.00
2019-05-14T00:35:51.593Z,0.00
2019-05-14T00:36:52.451Z,0.00
2019-05-14T00:37:52.134Z,0.00
2019-05-14T00:38:51.502Z,0.00
2019-05-14T00:39:52.127Z,0.00
2019-05-14T00:40:51.524Z,0.00
2019-05-14T00:41:51.423Z,0.00
2019-05-14T00:42:53.324Z,0.00
2019-05-14T00:43:51.515Z,0.00
2019-05-14T00:44:57.479Z,0.00
2019-05-14T00:45:52.173Z,0.00
2019-05-14T00:46:51.619Z,0.00
2019-05-14T00:47:52.517Z,0.00
2019-05-14T00:48:51.623Z,0.00
2019-05-14T00:49:51.706Z,0.00
2019-05-14T00:50:51.696Z,0.00
2019-05-14T00:51:51.941Z,0.00
2019-05-14T00:52:51.771Z,0.00
2019-05-14T00:53:51.712Z,0.00
2019-05-14T00:54:52.144Z,0.00
2019-05-14T00:55:51.784Z,0.00
2019-05-14T00:56:52.171Z,0.00
2019-05-14T00:57:52.162Z,0.00
2019-05-14T00:58:52.150Z,0.00
2019-05-14T00:59:52.162Z,0.00
2019-05-14T01:00:52.537Z,0.00
2019-05-14T01:01:51.591Z,0.00
2019-05-14T01:02:51.756Z,0.00
2019-05-14T01:03:52.070Z,0.00
2019-05-14T01:04:51.579Z,0.00
2019-05-14T01:05:52.282Z,0.00
2019-05-14T01:06:51.215Z,0.00
2019-05-14T01:07:51.525Z,0.00
2019-05-14T01:08:51.909Z,0.00
2019-05-14T01:09:52.356Z,0.00
2019-05-14T01:10:51.284Z,0.00
2019-05-14T01:11:51.280Z,0.00
2019-05-14T01:12:52.085Z,0.00
2019-05-14T01:13:52.230Z,0.00
2019-05-14T01:14:52.881Z,0.00
2019-05-14T01:15:52.302Z,0.00
2019-05-14T01:16:51.394Z,0.00
2019-05-14T01:17:51.546Z,0.00
2019-05-14T01:18:51.302Z,0.00
2019-05-14T01:19:51.441Z,0.00
2019-05-14T01:20:51.958Z,0.00
2019-05-14T01:21:51.157Z,0.00
2019-05-14T01:22:51.601Z,0.00
2019-05-14T01:23:51.417Z,0.00
2019-05-14T01:24:52.415Z,0.00
2019-05-14T01:25:51.673Z,0.00
2019-05-14T01:26:52.321Z,0.00
2019-05-14T01:27:51.760Z,0.00
2019-05-14T01:28:51.414Z,0.00
2019-05-14T01:29:51.404Z,0.00
2019-05-14T01:30:51.794Z,0.00
2019-05-14T01:31:51.994Z,0.00
2019-05-14T01:32:51.170Z,0.00
2019-05-14T01:33:51.563Z,0.00
2019-05-14T01:34:52.220Z,0.00
2019-05-14T01:35:51.457Z,0.00
2019-05-14T01:36:52.792Z,0.00
2019-05-14T01:37:52.196Z,0.00
2019-05-14T01:38:51.308Z,0.00
2019-05-14T01:39:52.081Z,0.00
2019-05-14T01:40:52.473Z,0.00
2019-05-14T01:41:51.651Z,0.00
2019-05-14T01:42:52.315Z,0.00
2019-05-14T01:43:51.354Z,0.00
2019-05-14T01:44:51.947Z,0.00
2019-05-14T01:45:52.381Z,0.00
2019-05-14T01:46:51.236Z,0.00
2019-05-14T01:47:52.060Z,0.00
2019-05-14T01:48:52.154Z,0.00
2019-05-14T01:49:51.462Z,0.00
2019-05-14T01:50:52.117Z,0.00
2019-05-14T01:51:51.196Z,0.00
2019-05-14T01:52:52.046Z,0.00
2019-05-14T01:53:52.054Z,0.00
2019-05-14T01:54:51.572Z,0.00
2019-05-14T01:55:51.955Z,0.00
2019-05-14T01:56:51.446Z,0.00
2019-05-14T01:57:51.776Z,0.00
2019-05-14T01:58:52.325Z,0.00
2019-05-14T01:59:51.675Z,0.00
2019-05-14T02:00:52.296Z,0.00
2019-05-14T02:01:51.695Z,0.00
2019-05-14T02:02:52.266Z,0.00
2019-05-14T02:03:51.771Z,0.00
2019-05-14T02:04:51.269Z,0.00
2019-05-14T02:05:52.134Z,0.00
2019-05-14T02:06:51.492Z,0.00
2019-05-14T02:07:52.407Z,0.00
2019-05-14T02:08:51.543Z,0.00
2019-05-14T02:09:51.819Z,0.00
2019-05-14T02:10:52.487Z,0.00
2019-05-14T02:11:51.887Z,0.00
2019-05-14T02:12:51.596Z,0.00
2019-05-14T02:13:51.951Z,0.00
2019-05-14T02:14:51.252Z,0.00
2019-05-14T02:15:52.070Z,0.00
2019-05-14T02:16:51.187Z,0.00
2019-05-14T02:17:51.871Z,0.00
2019-05-14T02:18:52.241Z,0.00
2019-05-14T02:19:51.452Z,0.00
2019-05-14T02:20:52.121Z,0.00
2019-05-14T02:21:51.404Z,0.00
2019-05-14T02:22:52.280Z,0.00
2019-05-14T02:23:51.370Z,0.00
2019-05-14T02:24:51.943Z,0.00
2019-05-14T02:25:51.867Z,0.00
2019-05-14T02:26:51.510Z,0.00
2019-05-14T02:27:51.936Z,0.00
2019-05-14T02:28:51.455Z,0.00
2019-05-14T02:29:51.823Z,0.00
2019-05-14T02:30:57.563Z,0.00
2019-05-14T02:31:50.993Z,0.00
2019-05-14T02:32:50.090Z,0.00
2019-05-14T02:33:50.627Z,0.00
2019-05-14T02:34:50.356Z,0.00
2019-05-14T02:35:50.028Z,0.00
2019-05-14T02:36:50.034Z,0.00
2019-05-14T02:37:50.610Z,0.00
2019-05-14T02:38:49.924Z,0.00
2019-05-14T02:39:50.425Z,0.00
2019-05-14T02:40:49.896Z,0.00
2019-05-14T02:41:50.135Z,0.00
2019-05-14T02:42:50.103Z,0.00
2019-05-14T02:43:50.522Z,0.00
2019-05-14T02:44:49.871Z,0.00
2019-05-14T02:46:03.371Z,0.00
2019-05-14T02:46:50.925Z,0.00
2019-05-14T02:47:50.487Z,0.00
2019-05-14T02:48:49.814Z,0.00
2019-05-14T02:49:50.312Z,0.00
2019-05-14T02:50:49.889Z,0.00
2019-05-14T02:51:50.600Z,0.00
2019-05-14T02:52:49.949Z,0.00
2019-05-14T02:53:50.039Z,0.00
2019-05-14T02:54:49.880Z,0.00
2019-05-14T02:55:50.099Z,0.00
2019-05-14T02:56:49.745Z,0.00
2019-05-14T02:57:50.262Z,0.00
2019-05-14T02:58:50.114Z,0.00
2019-05-14T02:59:50.382Z,0.00
2019-05-14T03:00:49.669Z,0.00
2019-05-14T03:01:50.474Z,0.00
2019-05-14T03:02:49.824Z,4.00
2019-05-14T03:03:49.783Z,4.00
2019-05-14T03:04:50.121Z,0.00
2019-05-14T03:05:49.877Z,4.00
2019-05-14T03:06:50.056Z,4.00
2019-05-14T03:07:50.215Z,0.00
2019-05-14T03:08:49.746Z,4.00
2019-05-14T03:09:50.342Z,4.00
2019-05-14T03:10:50.503Z,4.00
2019-05-14T03:11:49.579Z,4.00
2019-05-14T03:12:50.366Z,8.00
2019-05-14T03:13:49.799Z,8.00
2019-05-14T03:14:50.154Z,8.00
2019-05-14T03:15:50.083Z,8.00
2019-05-14T03:16:49.951Z,12.00
2019-05-14T03:17:49.683Z,12.00
2019-05-14T03:18:50.200Z,16.00
2019-05-14T03:19:49.833Z,12.00
2019-05-14T03:20:50.397Z,16.00
2019-05-14T03:21:50.329Z,20.00
2019-05-14T03:23:01.900Z,20.00
2019-05-14T03:23:50.501Z,24.00
2019-05-14T03:24:50.199Z,24.00
2019-05-14T03:25:49.640Z,28.00
2019-05-14T03:26:50.214Z,32.00
2019-05-14T03:27:49.835Z,36.00
2019-05-14T03:28:49.964Z,40.00
2019-05-14T03:29:50.148Z,44.00
2019-05-14T03:30:52.522Z,48.00
2019-05-14T03:31:52.720Z,52.00
2019-05-14T03:32:52.885Z,64.00
2019-05-14T03:33:52.432Z,68.00
2019-05-14T03:34:53.190Z,76.00
2019-05-14T03:35:57.603Z,84.00
2019-05-14T03:36:52.863Z,100.00
2019-05-14T03:37:49.850Z,112.00
2019-05-14T03:38:50.257Z,128.00
2019-05-14T03:39:49.561Z,140.00
2019-05-14T03:40:49.667Z,156.00
2019-05-14T03:41:49.810Z,172.00
2019-05-14T03:42:49.227Z,188.00
2019-05-14T03:43:49.663Z,200.00
2019-05-14T03:44:49.293Z,212.00
2019-05-14T03:45:49.786Z,224.00
2019-05-14T03:46:55.117Z,244.00
2019-05-14T03:47:50.739Z,252.00
2019-05-14T03:48:49.505Z,264.00
2019-05-14T03:49:50.047Z,272.00
2019-05-14T03:50:49.731Z,284.00
2019-05-14T03:51:49.950Z,296.00
2019-05-14T03:52:49.922Z,312.00
2019-05-14T03:54:01.173Z,332.00
2019-05-14T03:54:50.165Z,352.00
2019-05-14T03:55:50.425Z,368.00
2019-05-14T03:56:49.868Z,388.00
2019-05-14T03:57:50.096Z,408.00
2019-05-14T03:58:49.625Z,428.00
2019-05-14T03:59:49.945Z,448.00
2019-05-14T04:00:50.419Z,476.00
2019-05-14T04:01:51.076Z,500.00
2019-05-14T04:02:49.263Z,520.00
2019-05-14T04:03:50.379Z,548.00
2019-05-14T04:04:50.162Z,568.00
2019-05-14T04:05:49.728Z,588.00
2019-05-14T04:06:49.870Z,616.00
2019-05-14T04:07:50.252Z,644.00
2019-05-14T04:08:49.748Z,672.00
2019-05-14T04:09:49.553Z,696.00
2019-05-14T04:10:53.658Z,720.00
2019-05-14T04:11:50.322Z,748.00
2019-05-14T04:12:49.366Z,776.00
2019-05-14T04:13:49.795Z,816.00
2019-05-14T04:14:50.255Z,860.00
2019-05-14T04:15:49.938Z,908.00
2019-05-14T04:17:01.464Z,956.00
2019-05-14T04:17:50.417Z,1004.00
2019-05-14T04:18:50.486Z,1056.00
2019-05-14T04:19:49.931Z,1104.00
2019-05-14T04:20:50.110Z,1156.00
2019-05-14T04:21:49.229Z,1192.00
2019-05-14T04:22:50.058Z,1216.00
2019-05-14T04:23:50.922Z,1240.00
2019-05-14T04:24:49.598Z,1252.00
2019-05-14T04:25:49.845Z,1264.00
2019-05-14T04:26:58.400Z,1276.00
2019-05-14T04:27:49.734Z,1296.00
2019-05-14T04:28:49.843Z,1320.00
2019-05-14T04:29:49.792Z,1344.00
2019-05-14T04:30:49.386Z,1356.00
2019-05-14T04:31:50.373Z,1368.00
2019-05-14T04:32:50.527Z,1376.00
2019-05-14T04:33:50.006Z,1392.00
2019-05-14T04:34:49.823Z,1400.00
2019-05-14T04:35:49.183Z,1420.00
2019-05-14T04:36:50.207Z,1424.00
2019-05-14T04:37:49.552Z,1432.00
2019-05-14T04:38:54.226Z,1428.00
2019-05-14T04:39:50.471Z,1424.00
2019-05-14T04:40:49.347Z,1416.00
2019-05-14T04:41:49.794Z,1412.00
2019-05-14T04:42:50.397Z,1412.00
2019-05-14T04:43:50.026Z,1408.00
2019-05-14T04:44:50.334Z,1416.00
2019-05-14T04:45:49.703Z,1420.00
2019-05-14T04:46:49.398Z,1424.00
2019-05-14T04:47:49.758Z,1428.00
2019-05-14T04:48:50.567Z,1432.00
2019-05-14T04:49:50.598Z,1436.00
2019-05-14T04:50:49.768Z,1440.00
2019-05-14T04:51:50.362Z,1436.00
2019-05-14T04:52:49.379Z,1440.00
2019-05-14T04:53:49.902Z,1444.00
2019-05-14T04:54:49.908Z,1448.00
2019-05-14T04:55:49.461Z,1456.00
2019-05-14T04:56:50.858Z,1472.00
2019-05-14T04:57:50.072Z,1496.00
2019-05-14T04:58:49.586Z,1520.00
2019-05-14T04:59:49.425Z,1540.00
2019-05-14T05:00:49.877Z,1556.00
2019-05-14T05:01:49.404Z,1572.00
2019-05-14T05:02:49.757Z,1600.00
2019-05-14T05:03:50.295Z,1616.00
2019-05-14T05:04:50.786Z,1624.00
2019-05-14T05:05:49.964Z,1636.00
2019-05-14T05:06:49.925Z,1648.00
2019-05-14T05:07:49.272Z,1656.00
2019-05-14T05:08:49.837Z,1672.00
2019-05-14T05:09:50.167Z,1684.00
2019-05-14T05:10:49.423Z,1696.00
2019-05-14T05:11:49.788Z,1712.00
2019-05-14T05:12:49.293Z,1724.00
2019-05-14T05:13:48.795Z,1744.00
2019-05-14T05:14:49.250Z,1760.00
2019-05-14T05:15:48.723Z,1772.00
2019-05-14T05:16:49.051Z,1784.00
2019-05-14T05:17:52.611Z,1808.00
2019-05-14T05:18:49.511Z,1812.00
2019-05-14T05:19:51.713Z,1824.00
2019-05-14T05:20:50.604Z,1832.00
2019-05-14T05:21:48.187Z,1836.00
2019-05-14T05:22:48.664Z,1840.00
2019-05-14T05:23:49.332Z,1852.00
2019-05-14T05:24:48.502Z,1864.00
2019-05-14T05:25:49.069Z,1880.00
2019-05-14T05:26:48.684Z,1900.00
2019-05-14T05:27:48.697Z,1916.00
2019-05-14T05:29:02.975Z,1928.00
2019-05-14T05:29:49.024Z,1936.00
2019-05-14T05:30:49.103Z,1936.00
2019-05-14T05:31:48.761Z,1940.00
2019-05-14T05:32:49.403Z,1952.00
2019-05-14T05:33:48.938Z,1956.00
2019-05-14T05:34:48.396Z,1960.00
2019-05-14T05:35:48.620Z,1968.00
2019-05-14T05:36:48.623Z,1980.00
2019-05-14T05:37:49.059Z,2000.00
2019-05-14T05:38:49.016Z,2008.00
2019-05-14T05:39:49.108Z,2000.00
2019-05-14T05:40:48.586Z,1984.00
2019-05-14T05:41:49.206Z,1964.00
2019-05-14T05:42:48.964Z,1956.00
2019-05-14T05:43:48.510Z,1944.00
2019-05-14T05:44:48.446Z,1944.00
2019-05-14T05:45:48.598Z,1944.00
2019-05-14T05:46:49.410Z,1932.00
2019-05-14T05:47:58.029Z,1936.00
2019-05-14T05:48:48.814Z,1936.00
2019-05-14T05:49:48.845Z,1940.00
2019-05-14T05:50:48.434Z,1948.00
2019-05-14T05:51:48.362Z,1952.00
2019-05-14T05:52:49.784Z,1956.00
2019-05-14T05:53:48.368Z,1964.00
2019-05-14T05:54:48.990Z,1976.00
2019-05-14T05:55:48.420Z,1980.00
2019-05-14T05:56:48.138Z,1968.00
2019-05-14T05:57:49.224Z,1964.00
2019-05-14T05:58:48.906Z,1948.00
2019-05-14T05:59:48.542Z,1956.00
2019-05-14T06:00:49.730Z,1980.00
2019-05-14T06:01:50.133Z,2000.00
2019-05-14T06:02:48.957Z,2016.00
2019-05-14T06:03:49.193Z,2024.00
2019-05-14T06:04:48.037Z,2016.00
2019-05-14T06:05:49.216Z,2024.00
2019-05-14T06:06:48.247Z,2012.00
2019-05-14T06:07:48.272Z,1960.00
2019-05-14T06:08:49.205Z,2004.00
2019-05-14T06:09:48.305Z,2016.00
2019-05-14T06:10:48.955Z,1972.00
2019-05-14T06:11:48.840Z,1976.00
2019-05-14T06:12:49.115Z,1980.00
2019-05-14T06:13:48.492Z,1928.00
2019-05-14T06:14:48.719Z,1916.00
2019-05-14T06:15:49.481Z,1904.00
2019-05-14T06:16:48.932Z,1964.00
2019-05-14T06:17:49.274Z,1988.00
2019-05-14T06:18:48.426Z,2104.00
2019-05-14T06:19:48.638Z,2168.00
2019-05-14T06:20:49.400Z,2164.00
2019-05-14T06:21:48.944Z,2156.00
2019-05-14T06:22:48.929Z,2172.00
2019-05-14T06:23:49.065Z,2152.00
2019-05-14T06:24:48.505Z,2176.00
2019-05-14T06:25:49.306Z,2172.00
2019-05-14T06:26:48.994Z,2176.00
2019-05-14T06:27:48.562Z,2172.00
2019-05-14T06:28:48.858Z,2172.00
2019-05-14T06:29:48.956Z,2176.00
2019-05-14T06:30:48.436Z,2172.00
2019-05-14T06:31:49.543Z,2176.00
2019-05-14T06:32:48.724Z,2180.00
2019-05-14T06:33:48.651Z,2180.00
2019-05-14T06:34:48.961Z,2188.00
2019-05-14T06:35:48.536Z,2188.00
2019-05-14T06:36:48.655Z,2196.00
2019-05-14T06:37:49.012Z,2196.00
2019-05-14T06:38:49.368Z,2200.00
2019-05-14T06:39:48.369Z,2132.00
2019-05-14T06:40:48.952Z,2144.00
2019-05-14T06:41:48.987Z,2216.00
2019-05-14T06:42:48.575Z,2228.00
2019-05-14T06:43:48.704Z,2232.00
2019-05-14T06:44:49.236Z,2244.00
2019-05-14T06:45:49.515Z,2260.00
2019-05-14T06:46:49.048Z,2272.00
2019-05-14T06:47:48.738Z,2288.00
2019-05-14T06:48:48.619Z,2304.00
2019-05-14T06:49:48.754Z,2312.00
2019-05-14T06:50:47.116Z,2332.00
2019-05-14T06:51:48.906Z,2340.00
2019-05-14T06:52:49.219Z,2348.00
2019-05-14T06:53:49.546Z,2364.00
2019-05-14T06:54:49.647Z,2380.00
2019-05-14T06:55:48.413Z,2392.00
2019-05-14T06:56:48.776Z,2400.00
2019-05-14T06:57:48.049Z,2412.00
2019-05-14T06:58:49.142Z,2420.00
2019-05-14T06:59:48.430Z,2424.00
2019-05-14T07:00:49.355Z,2436.00
2019-05-14T07:01:48.973Z,2444.00
2019-05-14T07:02:49.064Z,2456.00
2019-05-14T07:03:49.023Z,2464.00
2019-05-14T07:04:48.388Z,2460.00
2019-05-14T07:05:49.144Z,2476.00
2019-05-14T07:06:48.495Z,2480.00
2019-05-14T07:07:49.310Z,2480.00
2019-05-14T07:08:48.711Z,2476.00
2019-05-14T07:09:48.902Z,2472.00
2019-05-14T07:10:48.591Z,2452.00
2019-05-14T07:11:49.063Z,2412.00
2019-05-14T07:12:46.867Z,2368.00
2019-05-14T07:13:49.139Z,2344.00
2019-05-14T07:14:48.221Z,2340.00
2019-05-14T07:15:48.889Z,2348.00
2019-05-14T07:16:48.514Z,2340.00
2019-05-14T07:17:48.823Z,2320.00
2019-05-14T07:18:52.790Z,2356.00
2019-05-14T07:19:49.039Z,2376.00
2019-05-14T07:20:48.573Z,2404.00
2019-05-14T07:21:49.056Z,2424.00
2019-05-14T07:22:48.350Z,2428.00
2019-05-14T07:23:48.908Z,2444.00
2019-05-14T07:24:49.369Z,2448.00
2019-05-14T07:25:48.333Z,2460.00
2019-05-14T07:26:49.223Z,2464.00
2019-05-14T07:27:48.858Z,2472.00
2019-05-14T07:28:48.762Z,2480.00
2019-05-14T07:29:49.000Z,2480.00
2019-05-14T07:30:48.612Z,2484.00
2019-05-14T07:31:48.923Z,2484.00
2019-05-14T07:32:48.403Z,2484.00
2019-05-14T07:33:48.991Z,2480.00
2019-05-14T07:34:48.224Z,2480.00
2019-05-14T07:35:48.844Z,2492.00
2019-05-14T07:36:48.911Z,2512.00
2019-05-14T07:37:48.733Z,2536.00
2019-05-14T07:38:48.946Z,2568.00
2019-05-14T07:39:48.779Z,2604.00
2019-05-14T07:40:49.201Z,2644.00
2019-05-14T07:41:48.302Z,2668.00
2019-05-14T07:42:48.663Z,2684.00
2019-05-14T07:43:48.314Z,2708.00
2019-05-14T07:44:48.502Z,2720.00
2019-05-14T07:45:48.913Z,2728.00
2019-05-14T07:46:48.307Z,2744.00
2019-05-14T07:47:49.191Z,2756.00
2019-05-14T07:49:03.287Z,2760.00
2019-05-14T07:49:48.975Z,2756.00
2019-05-14T07:50:49.185Z,2752.00
2019-05-14T07:51:48.234Z,2724.00
2019-05-14T07:52:49.528Z,2720.00
2019-05-14T07:53:48.547Z,2728.00
2019-05-14T07:54:48.118Z,2752.00
2019-05-14T07:55:49.076Z,2780.00
2019-05-14T07:56:49.088Z,2836.00
2019-05-14T07:57:48.089Z,2856.00
2019-05-14T07:58:48.861Z,2900.00
2019-05-14T07:59:48.433Z,2932.00
2019-05-14T08:00:48.962Z,2968.00
2019-05-14T08:01:46.319Z,2968.00
2019-05-14T08:02:48.916Z,2956.00
2019-05-14T08:03:48.488Z,2916.00
2019-05-14T08:04:48.533Z,2900.00
2019-05-14T08:05:48.343Z,2920.00
2019-05-14T08:06:48.605Z,2956.00
2019-05-14T08:07:48.118Z,2984.00
2019-05-14T08:08:49.012Z,3024.00
2019-05-14T08:09:47.987Z,3024.00
2019-05-14T08:10:48.495Z,3036.00
2019-05-14T08:11:48.056Z,3032.00
2019-05-14T08:12:48.333Z,3032.00
2019-05-14T08:13:46.189Z,3064.00
2019-05-14T08:15:08.682Z,3072.00
2019-05-14T08:15:48.972Z,3072.00
2019-05-14T08:16:48.724Z,3072.00
2019-05-14T08:17:48.216Z,3068.00
2019-05-14T08:18:48.475Z,3032.00
2019-05-14T08:19:46.123Z,2992.00
2019-05-14T08:20:48.444Z,2972.00
2019-05-14T08:21:48.152Z,2972.00
2019-05-14T08:22:46.095Z,2972.00
2019-05-14T08:23:48.143Z,3004.00
2019-05-14T08:24:46.072Z,3024.00
2019-05-14T08:25:47.929Z,3052.00
2019-05-14T08:26:46.043Z,3084.00
2019-05-14T08:27:48.243Z,3104.00
2019-05-14T08:28:46.025Z,3132.00
2019-05-14T08:29:48.432Z,3160.00
2019-05-14T08:30:46.000Z,3180.00
2019-05-14T08:31:45.987Z,3212.00
2019-05-14T08:32:45.983Z,3240.00
2019-05-14T08:33:48.544Z,3276.00
2019-05-14T08:34:48.006Z,2620.00
2019-05-14T08:35:45.943Z,3420.00
2019-05-14T08:36:48.201Z,3448.00
2019-05-14T08:37:45.923Z,3416.00
2019-05-14T08:38:47.436Z,3372.00
2019-05-14T08:39:48.401Z,3388.00
2019-05-14T08:40:45.882Z,3400.00
2019-05-14T08:41:58.517Z,3436.00
2019-05-14T08:42:48.828Z,3456.00
2019-05-14T08:43:45.860Z,3492.00
2019-05-14T08:44:50.352Z,3528.00
2019-05-14T08:45:48.754Z,3620.00
2019-05-14T08:46:48.158Z,4080.00
2019-05-14T08:47:48.120Z,4292.00
2019-05-14T08:48:45.813Z,4348.00
2019-05-14T08:49:47.581Z,4392.00
2019-05-14T08:50:47.942Z,4260.00
2019-05-14T08:51:45.796Z,4068.00
2019-05-14T08:52:48.152Z,3944.00
2019-05-14T08:53:45.763Z,3892.00
2019-05-14T08:54:45.737Z,3140.00
2019-05-14T08:55:48.456Z,3040.00
2019-05-14T08:56:45.733Z,4316.00
2019-05-14T08:57:48.678Z,4540.00
2019-05-14T08:58:45.743Z,4560.00
2019-05-14T08:59:47.859Z,4512.00
2019-05-14T09:00:48.077Z,4544.00
2019-05-14T09:02:00.882Z,4600.00
2019-05-14T09:02:48.593Z,4444.00
2019-05-14T09:03:45.628Z,4800.00
2019-05-14T09:04:52.632Z,4968.00
2019-05-14T09:05:48.978Z,5036.00
2019-05-14T09:06:45.617Z,5076.00
2019-05-14T09:07:45.603Z,5164.00
2019-05-14T09:08:45.571Z,5236.00
2019-05-14T09:09:45.571Z,5344.00
2019-05-14T09:10:45.552Z,5652.00
2019-05-14T09:11:46.602Z,6120.00
2019-05-14T09:12:45.619Z,6740.00
2019-05-14T09:13:45.515Z,6940.00
2019-05-14T09:14:45.522Z,6984.00
2019-05-14T09:15:45.495Z,6668.00
2019-05-14T09:16:50.011Z,6872.00
2019-05-14T09:17:48.380Z,7060.00
2019-05-14T09:18:45.458Z,7248.00
2019-05-14T09:19:58.886Z,7484.00
2019-05-14T09:20:48.589Z,7720.00
2019-05-14T09:21:45.427Z,8020.00
2019-05-14T09:22:45.412Z,8292.00
2019-05-14T09:23:48.047Z,6884.00
2019-05-14T09:24:45.428Z,6824.00
2019-05-14T09:25:49.412Z,6672.00
2019-05-14T09:26:48.306Z,6128.00
2019-05-14T09:27:45.383Z,7272.00
2019-05-14T09:28:45.352Z,6980.00
2019-05-14T09:29:45.360Z,6672.00
2019-05-14T09:30:45.329Z,5684.00
2019-05-14T09:31:45.349Z,5128.00
2019-05-14T09:32:45.308Z,5396.00
2019-05-14T09:33:45.370Z,7232.00
2019-05-14T09:34:45.334Z,7284.00
2019-05-14T09:35:45.267Z,7088.00
2019-05-14T09:36:45.288Z,6880.00
2019-05-14T09:37:45.252Z,6572.00
2019-05-14T09:38:45.235Z,6452.00
2019-05-14T09:39:45.233Z,6468.00
2019-05-14T09:40:45.239Z,6648.00
2019-05-14T09:41:45.215Z,7016.00
2019-05-14T09:42:45.195Z,5200.00
2019-05-14T09:43:45.227Z,5208.00
2019-05-14T09:44:45.175Z,5376.00
2019-05-14T09:45:45.163Z,5332.00
2019-05-14T09:46:45.183Z,5024.00
2019-05-14T09:47:49.764Z,4752.00
2019-05-14T09:48:48.405Z,4516.00
2019-05-14T09:49:45.116Z,6524.00
2019-05-14T09:50:45.121Z,6392.00
2019-05-14T09:51:45.090Z,6384.00
2019-05-14T09:52:45.085Z,6728.00
2019-05-14T09:53:45.098Z,6972.00
2019-05-14T09:54:45.067Z,6960.00
2019-05-14T09:55:45.043Z,6960.00
2019-05-14T09:56:45.038Z,7044.00
2019-05-14T09:57:45.031Z,5368.00
2019-05-14T09:58:45.015Z,5264.00
2019-05-14T09:59:45.023Z,5252.00
2019-05-14T10:00:45.000Z,5616.00
2019-05-14T10:01:44.983Z,5472.00
2019-05-14T10:02:45.007Z,5120.00
2019-05-14T10:03:44.971Z,6932.00
2019-05-14T10:04:44.960Z,4936.00
2019-05-14T10:05:44.959Z,4824.00
2019-05-14T10:06:44.934Z,4908.00
2019-05-14T10:07:44.915Z,5720.00
2019-05-14T10:08:44.902Z,5600.00
2019-05-14T10:09:44.894Z,5864.00
2019-05-14T10:10:44.883Z,4948.00
2019-05-14T10:11:44.884Z,4968.00
2019-05-14T10:12:53.956Z,5088.00
2019-05-14T10:13:48.168Z,5224.00
2019-05-14T10:14:44.835Z,5360.00
2019-05-14T10:15:44.835Z,5324.00
2019-05-14T10:16:44.811Z,5140.00
2019-05-14T10:17:44.816Z,5248.00
2019-05-14T10:18:44.826Z,6556.00
2019-05-14T10:19:44.796Z,6272.00
2019-05-14T10:20:46.005Z,6060.00
2019-05-14T10:21:44.751Z,5608.00
2019-05-14T10:22:44.749Z,5764.00
2019-05-14T10:23:44.751Z,5836.00
2019-05-14T10:24:44.722Z,5876.00
2019-05-14T10:25:44.715Z,5992.00
2019-05-14T10:26:44.718Z,6168.00
2019-05-14T10:27:44.721Z,6384.00
2019-05-14T10:28:44.675Z,4612.00
2019-05-14T10:29:44.667Z,4900.00
2019-05-14T10:30:44.657Z,5364.00
2019-05-14T10:31:44.719Z,7784.00
2019-05-14T10:32:44.658Z,7868.00
2019-05-14T10:33:44.620Z,8036.00
2019-05-14T10:34:44.619Z,7972.00
2019-05-14T10:35:44.627Z,7476.00
2019-05-14T10:36:44.595Z,6664.00
2019-05-14T10:37:44.574Z,6504.00
2019-05-14T10:38:44.586Z,4084.00
2019-05-14T10:39:44.603Z,5600.00
2019-05-14T10:40:44.555Z,4512.00
2019-05-14T10:41:44.540Z,4944.00
2019-05-14T10:42:44.526Z,3616.00
2019-05-14T10:43:44.511Z,3380.00
2019-05-14T10:44:44.515Z,4604.00
2019-05-14T10:45:44.490Z,5024.00
2019-05-14T10:46:44.531Z,3836.00
2019-05-14T10:47:44.467Z,4076.00
2019-05-14T10:48:44.455Z,6636.00
2019-05-14T10:49:44.446Z,7224.00
2019-05-14T10:50:56.266Z,7936.00
2019-05-14T10:51:45.435Z,8008.00
2019-05-14T10:52:44.418Z,6760.00
2019-05-14T10:53:44.402Z,8588.00
2019-05-14T10:54:55.428Z,8764.00
2019-05-14T10:55:45.379Z,6412.00
2019-05-14T10:56:44.367Z,5800.00
2019-05-14T10:57:44.372Z,6184.00
2019-05-14T10:58:44.370Z,4980.00
2019-05-14T10:59:44.326Z,4512.00
2019-05-14T11:00:44.366Z,4208.00
2019-05-14T11:01:44.315Z,4004.00
2019-05-14T11:02:44.296Z,4764.00
2019-05-14T11:03:44.310Z,4920.00
2019-05-14T11:04:44.271Z,3576.00
2019-05-14T11:05:44.259Z,3456.00
2019-05-14T11:06:44.261Z,3440.00
2019-05-14T11:07:44.292Z,3792.00
2019-05-14T11:08:44.232Z,5900.00
2019-05-14T11:09:44.246Z,5836.00
2019-05-14T11:10:44.204Z,5700.00
2019-05-14T11:11:44.199Z,3476.00
2019-05-14T11:12:44.188Z,4100.00
2019-05-14T11:13:44.215Z,5428.00
2019-05-14T11:14:44.172Z,3288.00
2019-05-14T11:15:44.171Z,3228.00
2019-05-14T11:16:44.190Z,5468.00
2019-05-14T11:17:44.143Z,3400.00
2019-05-14T11:18:44.131Z,3756.00
2019-05-14T11:19:44.110Z,6228.00
2019-05-14T11:20:44.134Z,4528.00
2019-05-14T11:21:44.090Z,4656.00
2019-05-14T11:22:44.087Z,6164.00
2019-05-14T11:23:44.063Z,5944.00
2019-05-14T11:24:44.056Z,5984.00
2019-05-14T11:25:44.047Z,5972.00
2019-05-14T11:26:44.092Z,6400.00
2019-05-14T11:27:44.015Z,6532.00
2019-05-14T11:28:44.003Z,6468.00
2019-05-14T11:29:43.991Z,6456.00
2019-05-14T11:30:44.020Z,6392.00
2019-05-14T11:31:43.987Z,6196.00
2019-05-14T11:32:43.987Z,6024.00
2019-05-14T11:33:43.951Z,5900.00
2019-05-14T11:34:43.944Z,5792.00
2019-05-14T11:35:43.931Z,5508.00
2019-05-14T11:36:43.926Z,3696.00
2019-05-14T11:37:43.918Z,3880.00
2019-05-14T11:38:43.980Z,3856.00
2019-05-14T11:39:43.882Z,5720.00
2019-05-14T11:40:43.886Z,5500.00
2019-05-14T11:41:43.875Z,5328.00
2019-05-14T11:42:43.859Z,3452.00
2019-05-14T11:43:43.894Z,2808.00
2019-05-14T11:44:43.831Z,2832.00
2019-05-14T11:45:43.841Z,2892.00
2019-05-14T11:46:56.299Z,2896.00
2019-05-14T11:47:44.834Z,2924.00
2019-05-14T11:48:43.823Z,3076.00
2019-05-14T11:49:43.771Z,5604.00
2019-05-14T11:50:43.762Z,5672.00
2019-05-14T11:52:00.969Z,5656.00
2019-05-14T11:52:44.739Z,5652.00
2019-05-14T11:53:43.727Z,5644.00
2019-05-14T11:54:43.755Z,5636.00
2019-05-14T11:55:43.728Z,5724.00
2019-05-14T11:56:43.694Z,5236.00
2019-05-14T11:57:43.685Z,3760.00
2019-05-14T11:58:43.670Z,3572.00
2019-05-14T11:59:43.671Z,3624.00
2019-05-14T12:00:43.655Z,4888.00
2019-05-14T12:01:43.650Z,5608.00
2019-05-14T12:02:43.626Z,5772.00
2019-05-14T12:03:43.614Z,5808.00
2019-05-14T12:04:43.622Z,5776.00
2019-05-14T12:05:43.629Z,4704.00
2019-05-14T12:06:43.606Z,3848.00
2019-05-14T12:07:43.570Z,3500.00
2019-05-14T12:08:43.558Z,5784.00
2019-05-14T12:09:43.579Z,3348.00
2019-05-14T12:10:43.615Z,3224.00
2019-05-14T12:11:43.526Z,3172.00
2019-05-14T12:12:43.515Z,5500.00
2019-05-14T12:13:43.571Z,5588.00
2019-05-14T12:14:43.494Z,5660.00
2019-05-14T12:15:43.487Z,5892.00
2019-05-14T12:16:43.483Z,6240.00
2019-05-14T12:17:43.462Z,6244.00
2019-05-14T12:18:43.471Z,6352.00
2019-05-14T12:19:44.218Z,4672.00
2019-05-14T12:20:43.435Z,6348.00
2019-05-14T12:21:58.747Z,7456.00
2019-05-14T12:22:44.467Z,5792.00
2019-05-14T12:23:43.393Z,8464.00
2019-05-14T12:24:43.382Z,6504.00
2019-05-14T12:25:43.422Z,9108.00
2019-05-14T12:26:43.368Z,8832.00